Aeroporto :
LOGIN :

Iscrizione | Disclaimer

   EN    FR    IT 

 










Sommario :    VFR   VFR Marginale   IFR   IFR Intensivo   IFR Molto Intensivo
Visibilità : 
Base nubi : 
>= 8 km
>= 3000ft
5 / 8 km
1000 / 3000 ft
1500m / 5 km
500 / 1000 ft
800 / 1500m
200 / 500 ft
< 800m
< 200 ft
Simboli :   Temporali  Nebbia  Neve Forte  Precipitazioni Forti  Vento > 20 kt
SIGMETs :   Varie  Temporali  Ghiacco  Turbolenza  Onda orograficha  Ceneri Vulcaniche






- Altitudine del aeroporto : 156 ft
- Codice IATA : LCC


LIBN - Lecce Galatine (military)

ULTIMO METAR :
  • 191855Z 11004KT 9999 FEW025 10/08 Q1016 RMK BKN BKN080 VIS MIN 9999 WIND THR14 11003KT WIND THR32 11004KT BLU

METARs OBSOLETI :
  • 191755Z 09003KT 9999 FEW025 11/09 Q1016 RMK BKN SCT090 VIS MIN 9999 WIND THR14 09002KT WIND THR32 10003KT BLU
  • 191655Z 25003KT 9999 SCT025 12/10 Q1017 RMK BKN BKN080 VIS MIN 9999 WIND THR14 26003KT WIND THR32 25003KT BLU

TAF TAF LIBN
Valido dal 19 a 15 ore il 20 a 00 ore UTC


191400Z 1915/1924 33010KT 9999 SCT025
TEMPO 1915/1917 BKN025
TEMPO 1917/1921 5000 SHRA FEW018CB BKN020



MetMap, La meteo Aeronautica in un colpo d'occhio ! - Copyright ORBIFLY Dicembre 2007 - Disclaimer

ORBIFLY MET'MAP TEAM :

Programmazione e sviluppo : Alexandra Zaïnal
Concezione : Baudouin d'Aumeries
Aiuto per la programmazione : Marc-Olivier Méhu
Supporto tecnico e logistico : Manuel Goepfert
Aiuto per la traduzione : Arnaldo La Scala

Contatto : metmap@orbifly.com




FONTI E CREDITI :

   NOAA